Aeroporto :
LOGIN :

Iscrizione | Disclaimer

   EN    FR    IT 

 










Sommario :    VFR   VFR Marginale   IFR   IFR Intensivo   IFR Molto Intensivo
Visibilità : 
Base nubi : 
>= 8 km
>= 3000ft
5 / 8 km
1000 / 3000 ft
1500m / 5 km
500 / 1000 ft
800 / 1500m
200 / 500 ft
< 800m
< 200 ft
Simboli :   Temporali  Nebbia  Neve Forte  Precipitazioni Forti  Vento > 20 kt
SIGMETs :   Varie  Temporali  Ghiacco  Turbolenza  Onda orograficha  Ceneri Vulcaniche







- Altitudine del aeroporto : 80 ft
- Codice IATA : LPL
- Carte del aeroporto


EGGP - Liverpool John Lennon

ULTIMO METAR :
  • 210150Z 12004KT CAVOK 11/06 Q1025

METARs OBSOLETI :
  • 210120Z 13004KT CAVOK 12/06 Q1025
  • 210050Z 14003KT CAVOK 12/06 Q1026
  • 210020Z 11004KT CAVOK 10/06 Q1026
  • 202350Z 11004KT CAVOK 13/07 Q1026
  • 202320Z 12005KT CAVOK 13/05 Q1027

TAF TAF EGGP
Valido dal 21 a 00 ore il 22 a 00 ore UTC


202257Z 2100/2124 VRB05KT 9999 FEW045
PROB30
TEMPO 2103/2108 8000
ATIS : +44 151 907 2000 (option 5 or ext 5150)
Met : +44 871 750 5150
Nessun NOTAM noto per questo aeroporto.



MetMap, La meteo Aeronautica in un colpo d'occhio ! - Copyright ORBIFLY Dicembre 2007 - Disclaimer

ORBIFLY MET'MAP TEAM :

Programmazione e sviluppo : Alexandra Zaïnal
Concezione e sviluppo : Baudouin d'Aumeries
Co-Programmazione e sviluppo : Marc-Olivier Méhu
Supporto tecnico e logistico : Manuel Goepfert
Aiuto per la traduzione : Arnaldo La Scala

Contatto : metmap@orbifly.com




FONTI E CREDITI :

   NOAA